Time;durP1;ratioP1;P1;durP2;ratioP2;P2;SDS_P1;SDS_P2;PMS_P1;PMS_P2;Temp;Humidity;BMP_temperature;BMP_pressure;BME280_temperature;BME280_humidity;BME280_pressure;Samples;Min_cycle;Max_cycle;Signal;HPM_P1;HPM_P2
2022/04/19 00:00:45;;;;;;;9.75;6.28;;;2.70;99.90;;;3.51;100.00;99005.41;4979555;28;120095;-70
2022/04/19 00:03:16;;;;;;;9.90;6.60;;;2.70;99.90;;;3.56;100.00;99006.19;4979352;28;130040;-71
2022/04/19 00:05:45;;;;;;;11.00;6.70;;;2.70;99.90;;;3.58;100.00;99006.72;4979699;28;129390;-70
2022/04/19 00:08:16;;;;;;;10.75;7.40;;;2.70;99.90;;;3.69;100.00;98998.59;4978660;28;120244;-70
2022/04/19 00:10:45;;;;;;;11.18;6.75;;;2.70;99.90;;;3.64;100.00;98994.06;4979835;28;119556;-70
2022/04/19 00:13:16;;;;;;;9.30;6.32;;;2.70;99.90;;;3.53;100.00;98993.31;4978893;28;131121;-69
2022/04/19 00:15:45;;;;;;;10.98;7.13;;;2.80;99.90;;;3.58;100.00;98995.16;4981109;28;129323;-68
2022/04/19 00:18:16;;;;;;;10.05;6.93;;;2.70;99.90;;;3.53;100.00;98987.94;4978284;28;121905;-69
2022/04/19 00:20:44;;;;;;;11.70;7.38;;;2.70;99.90;;;3.49;100.00;98986.91;4979204;28;121955;-69
2022/04/19 00:23:14;;;;;;;10.32;7.15;;;2.70;99.90;;;3.58;100.00;98990.63;4981569;28;130830;-68
2022/04/19 00:25:43;;;;;;;9.88;7.10;;;2.70;99.90;;;3.65;100.00;98995.66;4978769;28;129832;-69
2022/04/19 00:28:13;;;;;;;10.45;7.30;;;2.80;99.90;;;3.66;100.00;98985.72;4981104;28;119352;-69
2022/04/19 00:30:42;;;;;;;11.88;7.70;;;2.80;99.90;;;3.64;100.00;98986.00;4979205;28;119225;-68
2022/04/19 00:33:11;;;;;;;10.43;6.85;;;2.80;99.90;;;3.48;100.00;98982.63;4980486;28;129523;-67
2022/04/19 00:35:41;;;;;;;11.50;7.60;;;2.80;99.90;;;3.58;100.00;98990.63;4979030;28;129770;-69
2022/04/19 00:38:10;;;;;;;12.02;7.93;;;2.80;99.90;;;3.59;100.00;98976.09;4980911;28;120010;-68
2022/04/19 00:40:39;;;;;;;12.15;7.70;;;2.80;99.90;;;3.63;100.00;98986.28;4981054;28;120003;-68
2022/04/19 00:43:09;;;;;;;11.55;8.00;;;2.80;99.90;;;3.64;100.00;98985.22;4979043;28;129929;-69
2022/04/19 00:45:38;;;;;;;13.57;8.15;;;2.80;99.90;;;3.68;100.00;98988.97;4978830;28;130179;-69
2022/04/19 00:48:07;;;;;;;11.52;7.78;;;2.80;99.90;;;3.77;100.00;98987.25;4979082;28;119835;-70
2022/04/19 00:50:37;;;;;;;12.80;8.38;;;2.90;99.90;;;3.80;100.00;98978.66;4980865;28;119368;-70
2022/04/19 00:53:11;;;;;;;11.63;7.53;;;2.90;99.90;;;3.68;100.00;98983.59;4980169;28;129972;-69
2022/04/19 00:55:42;;;;;;;12.90;8.55;;;2.90;99.90;;;3.47;100.00;98981.00;4977318;28;130476;-68
2022/04/19 00:58:12;;;;;;;12.38;8.45;;;2.80;99.90;;;3.32;100.00;98976.53;4980752;28;118910;-69
2022/04/19 01:00:43;;;;;;;14.05;9.10;;;2.80;99.90;;;3.41;100.00;98985.63;4980713;28;119263;-69
2022/04/19 01:03:16;;;;;;;13.88;9.18;;;2.80;99.90;;;3.15;100.00;98986.81;4977206;28;129963;-68
2022/04/19 01:05:46;;;;;;;14.02;9.60;;;2.80;99.90;;;3.42;100.00;98986.41;4980481;28;128524;-67
2022/04/19 01:08:21;;;;;;;13.93;9.43;;;2.80;99.90;;;3.45;100.00;98987.75;4979176;28;121935;-69
2022/04/19 01:10:50;;;;;;;14.30;9.82;;;2.80;99.90;;;3.64;100.00;98982.53;4980323;28;122612;-68
2022/04/19 01:13:49;;;;;;;13.30;9.38;;;2.90;99.90;;;3.59;100.00;98980.69;4996416;28;129887;-69
2022/04/19 01:16:18;;;;;;;14.57;9.30;;;2.90;99.90;;;3.54;100.00;98978.84;4999985;28;129276;-69
2022/04/19 01:18:46;;;;;;;13.20;9.43;;;2.90;99.90;;;3.63;100.00;98978.22;4999274;28;119366;-69
2022/04/19 01:21:15;;;;;;;13.60;8.80;;;2.90;99.90;;;3.63;100.00;98981.75;5003849;28;119127;-69
2022/04/19 01:23:45;;;;;;;14.57;9.15;;;2.90;99.90;;;3.58;100.00;98977.22;5001740;28;130793;-70
2022/04/19 01:26:14;;;;;;;16.33;9.23;;;2.90;99.90;;;3.59;100.00;98981.47;5020414;28;129318;-70
2022/04/19 01:28:43;;;;;;;14.52;9.20;;;2.90;99.90;;;3.66;100.00;98975.00;5003944;28;118400;-68
2022/04/19 01:31:12;;;;;;;13.90;9.13;;;2.90;99.90;;;3.69;100.00;98975.22;5003465;28;118221;-71
2022/04/19 01:33:47;;;;;;;12.82;9.02;;;3.00;99.90;;;3.53;100.00;98966.47;4998558;28;129943;-70
2022/04/19 01:36:16;;;;;;;15.10;9.85;;;3.00;99.90;;;3.53;100.00;98961.13;5016769;28;129843;-68
2022/04/19 01:38:49;;;;;;;15.32;9.45;;;2.90;99.90;;;3.49;100.00;98970.81;5000412;28;119948;-69
2022/04/19 01:41:20;;;;;;;16.20;9.90;;;3.00;99.90;;;3.62;100.00;98968.59;5020481;28;119679;-70
2022/04/19 01:43:53;;;;;;;17.45;10.60;;;3.00;99.90;;;3.70;100.00;98976.06;5001923;28;129916;-69
2022/04/19 01:46:23;;;;;;;18.27;11.02;;;3.00;99.90;;;3.73;100.00;98954.03;4986526;28;128656;-70
2022/04/19 01:48:53;;;;;;;15.55;10.48;;;3.00;99.90;;;3.73;100.00;98959.41;5020060;28;119606;-69
2022/04/19 01:51:21;;;;;;;15.75;10.45;;;3.00;99.90;;;3.72;100.00;98957.78;5003181;28;118411;-68
2022/04/19 01:53:52;;;;;;;17.75;10.68;;;3.00;99.90;;;3.65;100.00;98960.78;5002978;28;130590;-69
2022/04/19 01:56:22;;;;;;;17.70;10.82;;;3.00;99.90;;;3.69;100.00;98952.97;5003027;28;129155;-69
2022/04/19 01:58:56;;;;;;;16.30;11.02;;;3.10;99.90;;;3.75;100.00;98957.22;5000114;28;122819;-69
2022/04/19 02:01:47;;;;;;;14.52;9.50;;;3.10;99.90;;;3.66;100.00;98954.34;5004005;28;122020;-71
2022/04/19 02:04:16;;;;;;;18.08;10.32;;;3.10;99.90;;;3.79;100.00;98952.91;5016479;28;130179;-69
2022/04/19 02:06:44;;;;;;;16.80;10.45;;;3.10;99.90;;;3.90;100.00;98949.06;4999424;28;129549;-69
2022/04/19 02:09:14;;;;;;;16.80;10.60;;;3.10;99.90;;;4.01;100.00;98954.34;5003046;28;119582;-70
2022/04/19 02:11:43;;;;;;;16.02;10.88;;;3.20;99.90;;;4.06;100.00;98951.63;5019778;28;118916;-69
2022/04/19 02:14:35;;;;;;;18.10;11.50;;;3.20;99.90;;;4.05;100.00;98958.06;4997533;28;131042;-69
2022/04/19 02:17:07;;;;;;;17.00;11.25;;;3.20;99.90;;;4.09;100.00;98956.44;5019657;28;129665;-69
2022/04/19 02:19:35;;;;;;;17.45;11.82;;;3.20;99.90;;;4.18;100.00;98959.31;5003147;28;120122;-68
2022/04/19 02:22:06;;;;;;;18.33;11.35;;;3.30;99.90;;;4.20;100.00;98960.63;5001563;28;120858;-69
2022/04/19 02:24:37;;;;;;;18.55;12.05;;;3.30;99.90;;;4.18;100.00;98959.31;5018025;28;129466;-68
2022/04/19 02:27:06;;;;;;;19.27;11.73;;;3.20;99.90;;;4.08;100.00;98950.25;5002439;28;128405;-69
2022/04/19 02:29:34;;;;;;;16.60;10.75;;;3.20;99.90;;;4.13;100.00;98957.47;5001859;28;118311;-69
2022/04/19 02:32:04;;;;;;;15.90;11.30;;;3.20;99.90;;;4.09;100.00;98951.84;5002337;28;119126;-69
2022/04/19 02:34:33;;;;;;;18.30;11.18;;;3.20;99.90;;;4.10;100.00;98948.09;5000557;28;130894;-69
2022/04/19 02:37:02;;;;;;;17.67;11.60;;;3.20;99.90;;;4.15;100.00;98955.31;4999308;28;130256;-71
2022/04/19 02:39:32;;;;;;;18.38;10.88;;;3.30;99.90;;;4.22;100.00;98955.75;5001002;28;119854;-70
2022/04/19 02:42:02;;;;;;;17.38;11.00;;;3.30;99.90;;;4.22;100.00;98954.97;4999533;28;119078;-70
2022/04/19 02:44:31;;;;;;;20.95;11.52;;;3.30;99.90;;;4.23;100.00;98954.69;5001686;28;130049;-68
2022/04/19 02:47:15;;;;;;;16.35;9.90;;;3.40;99.90;;;4.22;100.00;98950.38;5002135;28;129750;-69
2022/04/19 02:49:45;;;;;;;13.07;9.27;;;3.40;99.90;;;4.22;100.00;98949.59;5017558;28;123077;-68
2022/04/19 02:52:17;;;;;;;14.50;9.57;;;3.40;99.90;;;3.98;100.00;98950.34;4998838;28;121874;-70
2022/04/19 02:54:45;;;;;;;16.58;9.63;;;3.50;99.90;;;4.03;100.00;98957.56;5018918;28;129860;-69
2022/04/19 02:57:15;;;;;;;18.33;9.70;;;3.50;99.90;;;4.03;100.00;98952.19;5000055;28;130073;-70
2022/04/19 02:59:44;;;;;;;18.20;9.32;;;3.50;99.90;;;3.98;100.00;98955.72;5002212;28;119448;-68
2022/04/19 03:02:12;;;;;;;18.42;9.57;;;3.50;99.90;;;3.96;100.00;98947.94;5002387;28;119172;-70
2022/04/19 03:04:41;;;;;;;18.00;9.50;;;3.50;99.90;;;4.04;100.00;98953.78;5000240;28;129726;-69
2022/04/19 03:07:13;;;;;;;18.25;10.15;;;3.60;99.90;;;4.05;100.00;98953.50;4998716;28;129428;-70
2022/04/19 03:09:44;;;;;;;20.95;10.27;;;3.60;99.90;;;4.16;100.00;98946.19;5018837;28;120583;-70
2022/04/19 03:12:15;;;;;;;18.58;10.65;;;3.60;99.90;;;4.11;100.00;98943.50;5002151;28;119725;-70
2022/04/19 03:14:57;;;;;;;16.20;10.18;;;3.60;99.90;;;4.22;100.00;98945.00;5000330;28;128625;-68
2022/04/19 03:17:25;;;;;;;16.67;9.80;;;3.60;99.90;;;4.19;100.00;98952.84;5001760;28;129278;-69
2022/04/19 03:19:54;;;;;;;17.48;9.55;;;3.60;99.90;;;4.28;100.00;98953.84;5002238;28;119724;-70
2022/04/19 03:22:23;;;;;;;15.40;9.48;;;3.70;99.90;;;4.40;100.00;98946.19;5002282;28;120065;-69
2022/04/19 03:27:46;;;;;;;17.70;9.30;;;3.70;99.90;;;4.53;100.00;98950.09;5001784;28;129802;-72
2022/04/19 03:30:20;;;;;;;17.00;9.85;;;3.70;99.90;;;4.60;100.00;98945.19;4998487;28;120188;-68
2022/04/19 03:32:52;;;;;;;16.45;10.32;;;3.70;99.90;;;4.59;100.00;98948.16;5001977;28;119357;-70
2022/04/19 03:35:21;;;;;;;17.00;10.43;;;3.80;99.90;;;4.45;100.00;98948.03;4999617;28;130284;-71
2022/04/19 03:37:50;;;;;;;18.20;10.75;;;3.80;99.90;;;4.58;100.00;98957.31;4998303;28;129554;-71
2022/04/19 03:40:19;;;;;;;22.02;11.77;;;3.80;99.90;;;4.50;100.00;98945.28;5000194;28;121937;-70
2022/04/19 03:42:48;;;;;;;18.33;10.85;;;3.80;99.90;;;4.56;100.00;98951.44;4994790;28;121167;-70
2022/04/19 03:45:18;;;;;;;19.67;11.20;;;3.80;99.90;;;4.61;100.00;98946.81;4997933;28;129479;-73
2022/04/19 03:47:48;;;;;;;17.35;10.40;;;3.80;99.90;;;4.44;100.00;98946.44;4980549;28;130348;-70
2022/04/19 03:50:18;;;;;;;17.15;9.77;;;3.80;99.90;;;4.40;100.00;98948.09;4977987;28;120555;-71
2022/04/19 03:52:50;;;;;;;18.27;10.50;;;3.80;99.90;;;4.29;100.00;98950.88;4977746;28;119955;-72
2022/04/19 03:55:20;;;;;;;20.13;10.18;;;3.90;99.90;;;4.25;100.00;98952.50;4978078;28;130518;-70
2022/04/19 03:57:50;;;;;;;18.45;10.10;;;3.90;99.90;;;4.35;100.00;98958.88;4977329;28;129521;-71
2022/04/19 04:00:21;;;;;;;18.63;9.80;;;3.90;99.90;;;4.31;100.00;98950.59;4981400;28;118931;-72
2022/04/19 04:02:49;;;;;;;20.35;10.27;;;3.90;99.90;;;4.43;100.00;98944.84;4963988;28;118823;-72
2022/04/19 04:05:29;;;;;;;17.42;10.20;;;3.90;99.90;;;4.50;100.00;98939.91;4979588;28;129429;-70
2022/04/19 04:08:00;;;;;;;18.42;10.77;;;4.00;99.90;;;4.55;100.00;98944.44;4978634;28;131032;-71
2022/04/19 04:10:34;;;;;;;19.27;11.43;;;4.00;99.90;;;4.70;100.00;98938.09;4978104;28;119613;-72
2022/04/19 04:13:04;;;;;;;17.02;10.77;;;4.10;99.90;;;4.49;100.00;98944.50;4980705;28;119845;-71
2022/04/19 04:15:37;;;;;;;19.20;9.95;;;4.10;99.90;;;4.71;100.00;98945.09;4977585;28;131263;-68
2022/04/19 04:18:08;;;;;;;16.88;9.85;;;4.10;99.90;;;4.87;100.00;98941.13;4980154;28;129129;-72
2022/04/19 04:20:37;;;;;;;17.23;9.70;;;4.20;99.90;;;4.93;100.00;98937.28;4978039;28;120296;-69
2022/04/19 04:23:05;;;;;;;17.33;10.77;;;4.20;99.90;;;4.76;100.00;98936.97;4981697;28;119350;-70
2022/04/19 04:25:34;;;;;;;21.40;10.77;;;4.20;99.90;;;4.70;100.00;98933.53;4997382;28;129721;-69
2022/04/19 04:28:06;;;;;;;18.25;10.68;;;4.20;99.90;;;4.64;100.00;98940.88;4980827;28;129214;-71
2022/04/19 04:30:46;;;;;;;16.77;10.32;;;4.20;99.90;;;4.51;100.00;98930.78;4979679;28;121496;-72
2022/04/19 04:33:14;;;;;;;16.70;10.00;;;4.20;99.90;;;4.79;100.00;98934.50;4981031;28;121575;-71
2022/04/19 04:35:43;;;;;;;19.33;10.80;;;4.30;99.90;;;4.90;100.00;98926.31;4980781;28;130284;-70
2022/04/19 04:38:12;;;;;;;15.70;9.75;;;4.30;99.90;;;4.73;100.00;98926.78;4993551;28;131221;-71
2022/04/19 04:40:42;;;;;;;17.00;10.05;;;4.30;99.90;;;4.84;100.00;98922.88;4999439;28;120089;-72
2022/04/19 04:43:15;;;;;;;20.17;10.93;;;4.40;98.30;;;5.09;100.00;98929.03;4981787;28;118851;-71
2022/04/19 04:45:44;;;;;;;18.08;10.02;;;4.50;89.80;;;5.12;100.00;98923.88;4994868;28;130029;-72
2022/04/19 04:51:00;;;;;;;17.90;9.57;;;4.50;28.50;;;4.84;100.00;98922.88;4993644;28;119382;-76
2022/04/19 04:53:30;;;;;;;17.13;9.95;;;4.40;9.00;;;4.79;100.00;98926.44;4996254;28;119377;-72
2022/04/19 04:56:28;;;;;;;15.93;9.95;;;4.40;5.40;;;4.92;100.00;98924.13;4984890;28;129857;-71
2022/04/19 04:58:58;;;;;;;15.35;9.68;;;4.50;5.10;;;4.87;100.00;98927.69;4980017;28;129638;-69
2022/04/19 05:01:33;;;;;;;16.45;8.45;;;4.50;1.00;;;4.71;100.00;98924.38;4984096;28;119021;-70
2022/04/19 05:04:02;;;;;;;13.88;8.20;;;4.50;1.00;;;4.89;100.00;98924.72;4980293;28;119777;-68
2022/04/19 05:06:31;;;;;;;15.75;8.50;;;4.50;1.00;;;4.82;100.00;98925.06;4983775;28;130000;-69
2022/04/19 05:08:59;;;;;;;14.23;8.18;;;4.50;1.00;;;4.78;100.00;98929.41;4981746;28;129771;-68
2022/04/19 05:11:28;;;;;;;14.90;8.48;;;4.40;1.00;;;4.93;100.00;98915.78;4983969;28;119305;-68
2022/04/19 05:13:58;;;;;;;15.00;8.30;;;4.50;1.00;;;4.93;100.00;98921.16;4984172;28;119106;-68
2022/04/19 05:16:27;;;;;;;16.23;7.80;;;4.50;1.00;;;4.96;100.00;98925.97;4983717;28;130791;-70
2022/04/19 05:18:55;;;;;;;14.15;8.10;;;4.60;1.00;;;4.91;100.00;98923.34;4980739;28;129504;-69
2022/04/19 05:21:24;;;;;;;10.20;6.85;;;4.50;1.00;;;4.77;100.00;98917.84;4990551;28;122138;-71
2022/04/19 05:23:53;;;;;;;11.75;7.15;;;4.50;1.00;;;4.72;100.00;98919.78;5003566;28;120587;-72
2022/04/19 05:26:28;;;;;;;14.45;7.97;;;4.40;1.00;;;4.72;100.00;98909.88;5003324;28;130461;-71
2022/04/19 05:28:58;;;;;;;13.98;7.72;;;4.40;1.00;;;4.95;100.00;98912.81;5000186;28;130098;-71
2022/04/19 05:31:27;;;;;;;13.38;7.13;;;4.50;1.00;;;5.04;100.00;98908.38;4999960;28;120557;-75
2022/04/19 05:33:56;;;;;;;14.23;7.53;;;4.60;1.00;;;4.89;100.00;98914.75;5003522;28;119110;-73
2022/04/19 05:36:24;;;;;;;12.05;6.85;;;4.50;1.00;;;4.85;100.00;98919.13;4999851;28;130469;-72
2022/04/19 05:38:54;;;;;;;11.63;6.93;;;4.50;1.00;;;4.53;100.00;98917.84;5017052;28;129527;-73
2022/04/19 05:41:25;;;;;;;12.65;7.18;;;4.40;1.00;;;4.73;100.00;98910.66;5003286;28;119603;-73
2022/04/19 05:43:56;;;;;;;10.35;6.68;;;4.40;1.00;;;4.85;100.00;98913.75;5019781;28;119890;-74
2022/04/19 05:46:25;;;;;;;12.15;6.60;;;4.40;1.00;;;4.66;100.00;98908.31;5001451;28;129465;-72
2022/04/19 05:48:54;;;;;;;12.90;6.90;;;4.40;1.00;;;4.67;100.00;98901.84;5002612;28;129124;-72
2022/04/19 05:51:23;;;;;;;14.60;8.93;;;4.40;1.00;;;4.61;100.00;98901.13;5003369;28;119712;-72
2022/04/19 05:53:51;;;;;;;16.00;10.55;;;4.30;1.00;;;4.64;100.00;98900.53;5020041;28;119000;-75
2022/04/19 05:56:20;;;;;;;13.55;9.38;;;4.40;1.00;;;4.93;100.00;98904.22;5002741;28;129493;-73
2022/04/19 05:58:48;;;;;;;18.08;9.05;;;4.50;1.00;;;5.26;100.00;98897.06;4986087;28;128193;-72
2022/04/19 06:01:18;;;;;;;13.43;6.95;;;4.60;1.00;;;5.27;100.00;98901.34;5003183;28;119886;-73
2022/04/19 06:06:37;;;;;;;11.90;6.75;;;4.60;1.00;;;4.97;100.00;98897.16;4999272;28;130360;-74
2022/04/19 06:09:06;;;;;;;11.48;6.82;;;4.60;1.00;;;5.20;100.00;98892.81;5002688;28;129532;-73
2022/04/19 06:11:34;;;;;;;10.23;7.00;;;4.60;1.00;;;5.25;100.00;98890.09;5001991;28;122021;-73
2022/04/19 06:14:04;;;;;;;12.93;7.00;;;4.70;1.00;;;4.94;100.00;98895.88;4986250;28;120571;-72
2022/04/19 06:16:34;;;;;;;13.27;7.65;;;4.60;1.00;;;5.00;100.00;98888.53;5001981;28;129781;-72
2022/04/19 06:19:05;;;;;;;11.85;6.70;;;4.60;1.00;;;4.78;100.00;98889.06;4986042;28;128647;-71
2022/04/19 06:21:33;;;;;;;10.27;6.85;;;4.60;1.00;;;4.94;100.00;98887.00;5003023;28;119170;-68
2022/04/19 06:24:04;;;;;;;12.98;6.85;;;4.70;1.00;;;5.26;100.00;98875.53;4999726;28;119573;-68
2022/04/19 06:26:33;;;;;;;13.73;7.35;;;4.80;1.00;;;5.46;100.00;98879.03;5002557;28;129976;-70
2022/04/19 06:29:06;;;;;;;11.30;6.97;;;4.90;1.00;;;4.92;100.00;98871.16;5002882;28;129460;-69
2022/04/19 06:31:44;;;;;;;10.90;7.07;;;4.70;1.00;;;4.86;100.00;98877.69;5001098;28;119932;-71
2022/04/19 06:34:26;;;;;;;9.68;6.45;;;4.60;4.70;;;4.75;100.00;98870.84;5002554;28;119376;-71
2022/04/19 06:37:03;;;;;;;14.30;7.82;;;4.50;2.20;;;4.50;100.00;98872.72;4998012;28;130266;-71
2022/04/19 06:39:32;;;;;;;9.43;6.93;;;4.40;11.20;;;4.45;100.00;98862.84;4998973;28;129401;-70
2022/04/19 06:42:01;;;;;;;14.15;7.60;;;4.40;24.70;;;4.58;100.00;98871.31;5002652;28;119337;-70
2022/04/19 06:44:38;;;;;;;10.70;6.60;;;4.40;54.50;;;4.52;100.00;98875.97;5002270;28;119924;-70
2022/04/19 06:47:12;;;;;;;12.80;6.85;;;4.40;60.70;;;4.33;100.00;98875.88;5001737;28;130389;-69
2022/04/19 06:49:45;;;;;;;13.00;7.18;;;4.40;57.80;;;4.42;100.00;98868.00;5002379;28;129525;-70
2022/04/19 06:52:13;;;;;;;11.95;7.35;;;4.40;85.50;;;4.36;100.00;98879.88;5015771;28;119460;-73
2022/04/19 06:54:42;;;;;;;11.90;7.05;;;4.30;88.40;;;4.36;100.00;98879.88;4999766;28;119485;-71
2022/04/19 06:57:11;;;;;;;12.63;7.07;;;4.30;97.50;;;4.54;100.00;98876.47;5001876;28;130438;-71
2022/04/19 06:59:39;;;;;;;12.95;8.00;;;4.40;99.90;;;4.71;100.00;98877.91;5002134;28;129020;-71
2022/04/19 07:02:08;;;;;;;14.70;6.90;;;4.40;99.90;;;4.60;100.00;98875.31;5000478;28;122218;-72
2022/04/19 07:04:36;;;;;;;17.35;8.32;;;4.40;99.90;;;4.25;100.00;98874.59;5000450;28;121997;-70
2022/04/19 07:07:13;;;;;;;13.10;7.82;;;4.30;99.90;;;4.42;100.00;98881.44;5001455;28;129783;-71
2022/04/19 07:09:45;;;;;;;12.60;6.75;;;4.40;99.90;;;4.25;100.00;98884.56;5001910;28;129411;-71
2022/04/19 07:12:15;;;;;;;12.05;7.00;;;4.30;99.90;;;3.91;100.00;98882.72;5001953;28;118574;-71
2022/04/19 07:14:56;;;;;;;11.50;6.80;;;4.20;99.90;;;4.09;100.00;98883.91;5001619;28;119750;-72
2022/04/19 07:17:47;;;;;;;11.60;7.03;;;4.20;99.90;;;4.23;100.00;98879.47;5001351;28;129807;-71
2022/04/19 07:28:53;;;;;;;12.70;7.32;;;4.40;99.90;;;4.69;100.00;98878.19;4976131;28;129802;-70
2022/04/19 07:31:21;;;;;;;12.25;8.18;;;4.40;99.90;;;4.55;100.00;98870.00;4998072;28;129763;-69
2022/04/19 07:33:50;;;;;;;14.05;7.28;;;4.40;99.90;;;4.46;100.00;98863.66;4999743;28;119427;-71
2022/04/19 07:36:19;;;;;;;14.10;7.38;;;4.40;99.90;;;4.68;100.00;98869.28;5001736;28;119732;-70
2022/04/19 07:38:51;;;;;;;13.18;7.07;;;4.50;99.90;;;4.72;100.00;98871.41;5001090;28;129816;-69
2022/04/19 07:41:31;;;;;;;10.13;6.63;;;4.40;99.90;;;4.36;100.00;98864.56;4998381;28;129613;-70
2022/04/19 07:44:01;;;;;;;11.82;7.20;;;4.40;99.90;;;4.39;100.00;98860.50;5001056;28;119751;-72
2022/04/19 07:46:29;;;;;;;15.70;7.80;;;4.30;99.90;;;4.47;100.00;98859.88;4999026;28;119456;-72
2022/04/19 07:48:58;;;;;;;13.25;7.50;;;4.30;99.90;;;4.29;100.00;98858.75;5017713;28;129326;-70
2022/04/19 07:51:27;;;;;;;13.38;9.02;;;4.20;99.90;;;4.22;100.00;98853.69;5001271;28;130280;-73
2022/04/19 07:53:58;;;;;;;14.82;7.22;;;4.30;99.90;;;4.36;100.00;98859.19;4998379;28;122158;-72
2022/04/19 07:56:27;;;;;;;13.43;7.43;;;4.30;99.90;;;4.64;100.00;98860.22;4999085;28;122193;-70
2022/04/19 07:58:55;;;;;;;11.23;7.60;;;4.40;99.90;;;4.61;100.00;98866.19;4999063;28;129753;-70
2022/04/19 08:01:24;;;;;;;11.70;6.75;;;4.40;99.90;;;4.73;100.00;98862.28;5001107;28;128519;-71
2022/04/19 08:03:53;;;;;;;13.65;6.50;;;4.40;99.90;;;4.48;100.00;98858.78;5001392;28;119906;-67
2022/04/19 08:06:22;;;;;;;14.52;7.75;;;4.30;99.90;;;4.80;100.00;98865.38;4999380;28;119523;-70
2022/04/19 08:08:51;;;;;;;12.48;7.22;;;4.40;99.90;;;4.71;100.00;98859.88;4997996;28;129962;-68
2022/04/19 08:11:21;;;;;;;11.52;6.88;;;4.40;99.90;;;4.50;100.00;98870.88;5018150;28;129419;-69
2022/04/19 08:13:51;;;;;;;13.63;7.60;;;4.30;99.90;;;4.48;100.00;98864.16;5001417;28;119001;-68
2022/04/19 08:16:19;;;;;;;13.13;7.68;;;4.20;99.90;;;4.52;100.00;98850.94;5000995;28;119167;-68
2022/04/19 08:18:49;;;;;;;12.10;7.65;;;4.30;99.90;;;4.78;100.00;98854.13;4999859;28;129779;-72
2022/04/19 08:21:18;;;;;;;14.13;7.32;;;4.40;99.90;;;4.53;100.00;98858.72;4999046;28;130773;-68
2022/04/19 08:23:47;;;;;;;13.98;7.15;;;4.40;99.90;;;4.56;100.00;98855.47;5017689;28;119193;-68
2022/04/19 08:26:21;;;;;;;11.95;7.28;;;4.30;99.90;;;4.38;100.00;98856.22;5000809;28;119126;-68
2022/04/19 08:28:50;;;;;;;13.07;7.93;;;4.30;99.90;;;4.50;100.00;98862.00;5002516;28;129579;-68
2022/04/19 08:31:18;;;;;;;15.57;8.77;;;4.30;99.90;;;4.71;100.00;98854.50;5004286;28;129000;-68
2022/04/19 08:33:47;;;;;;;12.90;7.78;;;4.40;99.90;;;5.07;100.00;98854.00;5002867;28;119843;-68
2022/04/19 08:36:20;;;;;;;11.95;7.35;;;4.50;99.90;;;4.71;100.00;98865.25;5004869;28;119600;-68
2022/04/19 08:38:49;;;;;;;13.68;8.25;;;4.40;99.90;;;4.39;100.00;98863.19;5004565;28;129750;-71
2022/04/19 08:41:23;;;;;;;11.07;7.65;;;4.30;99.90;;;4.35;100.00;98870.22;5004401;28;129100;-68
2022/04/19 08:43:54;;;;;;;11.30;8.05;;;4.30;99.90;;;4.67;100.00;98870.41;4985505;28;122438;-69
2022/04/19 08:46:22;;;;;;;12.68;7.15;;;4.50;99.90;;;4.73;100.00;98867.66;5002738;28;121820;-69
2022/04/19 08:48:51;;;;;;;13.13;7.68;;;4.40;99.90;;;4.47;100.00;98866.06;5002451;28;129752;-70
2022/04/19 08:51:21;;;;;;;13.43;8.00;;;4.40;99.90;;;4.62;100.00;98875.03;5002255;28;129319;-70
2022/04/19 08:59:30;;;;;;;15.93;7.35;;;4.50;99.90;;;4.88;100.00;98875.53;5004974;28;129989;-71
2022/04/19 09:01:59;;;;;;;13.98;8.02;;;4.50;99.90;;;5.13;100.00;98876.28;4990058;28;128232;-70
2022/04/19 09:04:28;;;;;;;11.32;7.03;;;4.60;99.90;;;4.86;100.00;98878.50;5005508;28;119831;-71
2022/04/19 09:06:58;;;;;;;11.40;7.80;;;4.60;99.90;;;4.55;100.00;98867.31;5000673;28;119595;-71
2022/04/19 09:09:29;;;;;;;13.25;8.07;;;4.50;99.90;;;4.48;100.00;98882.97;5000647;28;130313;-70
2022/04/19 09:12:10;;;;;;;14.38;8.15;;;4.50;99.90;;;4.68;100.00;98871.19;5002234;28;130120;-70
2022/04/19 09:14:54;;;;;;;14.13;8.65;;;4.50;99.90;;;5.06;100.00;98871.22;5002015;28;119777;-71
2022/04/19 09:17:32;;;;;;;12.88;8.02;;;4.60;99.90;;;5.00;100.00;98883.97;5017656;28;119707;-70
2022/04/19 09:20:11;;;;;;;11.32;6.60;;;4.60;99.90;;;5.13;100.00;98876.28;5001996;28;130472;-70
2022/04/19 09:22:42;;;;;;;12.45;7.60;;;4.70;99.90;;;4.80;100.00;98878.81;5002186;28;130127;-70
2022/04/19 09:25:24;;;;;;;14.13;8.05;;;4.60;99.90;;;4.65;100.00;98883.31;5002481;28;119776;-70
2022/04/19 09:27:56;;;;;;;11.70;7.43;;;4.60;99.90;;;4.65;100.00;98877.94;5002396;28;119543;-68
2022/04/19 09:30:26;;;;;;;14.15;8.00;;;4.60;99.90;;;4.57;100.00;98888.53;5001973;28;130411;-69
2022/04/19 09:33:07;;;;;;;9.07;6.45;;;4.60;99.90;;;5.08;100.00;98876.31;5001945;28;130354;-69
2022/04/19 09:35:38;;;;;;;13.82;7.35;;;4.70;99.90;;;5.17;100.00;98888.03;5000577;28;122005;-69
2022/04/19 09:38:08;;;;;;;13.15;8.15;;;4.80;99.90;;;5.42;100.00;98884.16;5003892;28;121214;-68
2022/04/19 09:40:41;;;;;;;11.38;7.28;;;4.90;99.90;;;5.31;100.00;98883.50;5001415;28;130686;-69
2022/04/19 09:43:14;;;;;;;12.82;7.50;;;4.90;99.90;;;5.13;100.00;98887.81;5002653;28;131750;-67
2022/04/19 09:45:56;;;;;;;11.82;6.63;;;4.90;99.50;;;5.02;100.00;98894.44;4999218;28;119484;-68
2022/04/19 09:48:28;;;;;;;13.07;7.57;;;4.80;93.30;;;4.93;100.00;98891.56;5001835;28;119779;-71
2022/04/19 09:51:02;;;;;;;14.43;8.00;;;4.80;99.90;;;5.10;100.00;98879.53;5001165;28;129770;-69
2022/04/19 09:53:39;;;;;;;12.15;7.32;;;4.80;99.90;;;5.17;100.00;98883.47;5003741;28;129010;-68
2022/04/19 09:56:10;;;;;;;8.77;6.30;;;4.80;99.90;;;4.96;100.00;98891.00;5004585;28;119017;-69
2022/04/19 09:58:41;;;;;;;12.20;7.10;;;4.70;99.90;;;5.07;100.00;98888.19;5001364;28;119540;-70
2022/04/19 10:08:10;;;;;;;12.25;7.72;;;4.80;99.90;;;5.14;100.00;98872.47;4999950;28;130033;-70
2022/04/19 10:09:41;;;;;;;11.35;6.75;;;4.70;99.90;;;5.01;100.00;98874.78;5002802;28;119151;-70
2022/04/19 10:12:10;;;;;;;11.15;6.63;;;4.70;99.90;;;4.86;100.00;98867.75;5001034;28;129631;-69
2022/04/19 10:14:45;;;;;;;11.68;7.72;;;4.70;99.90;;;5.04;100.00;98858.06;5003101;28;129269;-70
2022/04/19 10:17:15;;;;;;;10.68;7.25;;;4.70;99.90;;;4.79;100.00;98861.13;5004436;28;122104;-70
2022/04/19 10:19:43;;;;;;;17.50;7.95;;;4.60;99.90;;;4.74;100.00;98859.28;5003574;28;119141;-69
2022/04/19 10:22:12;;;;;;;13.73;7.57;;;4.60;99.90;;;4.86;100.00;98845.41;5001087;28;130001;-72
2022/04/19 10:24:47;;;;;;;11.85;7.70;;;4.70;99.90;;;4.94;100.00;98842.09;5001111;28;129730;-69
2022/04/19 10:27:16;;;;;;;12.55;7.50;;;4.70;99.90;;;4.96;100.00;98837.22;5001511;28;121596;-68
2022/04/19 10:29:46;;;;;;;12.23;7.88;;;4.70;99.90;;;4.91;100.00;98837.28;5003146;28;121830;-70
2022/04/19 10:32:15;;;;;;;13.15;7.63;;;4.70;99.90;;;4.92;100.00;98846.94;5002480;28;129469;-69
2022/04/19 10:34:44;;;;;;;11.52;7.40;;;4.70;99.90;;;5.00;100.00;98845.50;5001065;28;131018;-70
2022/04/19 10:37:23;;;;;;;12.27;7.20;;;4.80;99.90;;;4.85;100.00;98859.97;5002653;28;119094;-68
2022/04/19 10:40:04;;;;;;;12.50;7.60;;;4.80;99.90;;;4.98;100.00;98856.53;5001016;28;119317;-69
2022/04/19 10:42:35;;;;;;;13.18;7.07;;;4.80;99.90;;;5.49;100.00;98844.25;5002315;28;130046;-69
2022/04/19 10:45:32;;;;;;;11.82;6.95;;;5.10;99.90;;;5.62;100.00;98842.69;5001047;28;129618;-69
2022/04/19 10:48:07;;;;;;;17.75;10.52;;;5.20;99.90;;;5.73;100.00;98846.81;4956310;28;119384;-69
2022/04/19 10:50:39;;;;;;;16.38;12.02;;;5.30;99.90;;;5.63;100.00;98841.59;5001891;28;119030;-69
2022/04/19 10:53:09;;;;;;;14.57;9.60;;;5.30;99.90;;;5.99;100.00;98849.09;5001315;28;129959;-69
2022/04/19 10:55:38;;;;;;;19.15;12.57;;;5.30;99.90;;;5.89;100.00;98855.44;5002362;28;128514;-69
2022/04/19 10:58:20;;;;;;;23.98;13.07;;;5.30;99.90;;;5.98;100.00;98862.84;4999123;28;119652;-70